createdAt,value
2017-06-13T00:00:32.238Z,20.73
2017-06-13T00:01:32.234Z,20.7
2017-06-13T00:02:32.233Z,20.64
2017-06-13T00:03:31.922Z,20.6
2017-06-13T00:04:32.231Z,20.63
2017-06-13T00:05:31.920Z,20.55
2017-06-13T00:06:32.230Z,20.55
2017-06-13T00:07:32.226Z,20.52
2017-06-13T00:08:32.232Z,20.5
2017-06-13T00:09:31.915Z,20.46
2017-06-13T00:10:31.916Z,20.44
2017-06-13T00:11:32.222Z,20.49
2017-06-13T00:12:32.220Z,20.46
2017-06-13T00:13:32.214Z,20.53
2017-06-13T00:14:32.219Z,20.4
2017-06-13T00:15:32.215Z,20.42
2017-06-13T00:16:32.214Z,20.3
2017-06-13T00:17:32.209Z,20.33
2017-06-13T00:18:32.422Z,20.29
2017-06-13T00:19:31.903Z,20.36
2017-06-13T00:20:32.204Z,20.21
2017-06-13T00:21:32.202Z,20.21
2017-06-13T00:22:32.206Z,20.21
2017-06-13T00:23:32.204Z,20.15
2017-06-13T00:24:32.200Z,20.21
2017-06-13T00:25:32.200Z,20.19
2017-06-13T00:26:31.889Z,20.15
2017-06-13T00:27:32.197Z,20.12
2017-06-13T00:28:32.195Z,20.1
2017-06-13T00:29:32.192Z,20.11
2017-06-13T00:30:31.888Z,20.14
2017-06-13T00:31:32.194Z,20.08
2017-06-13T00:32:31.881Z,20.15
2017-06-13T00:33:31.882Z,20.07
2017-06-13T00:34:32.187Z,20.11
2017-06-13T00:35:32.184Z,20.03
2017-06-13T00:36:31.876Z,20.04
2017-06-13T00:37:32.182Z,20.04
2017-06-13T00:38:31.873Z,19.99
2017-06-13T00:39:32.179Z,20
2017-06-13T00:40:31.566Z,20.02
2017-06-13T00:41:32.173Z,19.96
2017-06-13T00:42:32.172Z,20
2017-06-13T00:43:32.177Z,20.03
2017-06-13T00:44:32.170Z,20
2017-06-13T00:45:32.174Z,19.99
2017-06-13T00:46:31.865Z,19.94
2017-06-13T00:47:31.555Z,19.97
2017-06-13T00:48:32.165Z,20.03
2017-06-13T00:49:31.859Z,20.02
2017-06-13T00:50:32.160Z,19.99
2017-06-13T00:51:32.164Z,20.12
2017-06-13T00:52:32.162Z,19.99
2017-06-13T00:53:32.163Z,20
2017-06-13T00:54:32.156Z,19.97
2017-06-13T00:55:32.159Z,20
2017-06-13T00:56:31.845Z,19.93
2017-06-13T00:57:32.154Z,19.9
2017-06-13T00:58:32.150Z,19.94
2017-06-13T00:59:32.159Z,19.96
2017-06-13T01:00:32.148Z,19.9
2017-06-13T01:01:31.844Z,19.81
2017-06-13T01:02:31.536Z,19.9
2017-06-13T01:03:31.837Z,19.81
2017-06-13T01:04:32.142Z,19.92
2017-06-13T01:05:31.837Z,19.78
2017-06-13T01:06:32.164Z,19.85
2017-06-13T01:07:32.139Z,19.84
2017-06-13T01:08:32.139Z,19.78
2017-06-13T01:09:32.137Z,19.78
2017-06-13T01:10:32.134Z,19.87
2017-06-13T01:11:32.130Z,19.93
2017-06-13T01:12:32.127Z,19.81
2017-06-13T01:13:32.133Z,19.82
2017-06-13T01:14:32.124Z,19.92
2017-06-13T01:15:32.126Z,19.89
2017-06-13T01:16:32.123Z,19.78
2017-06-13T01:17:32.119Z,19.85
2017-06-13T01:18:31.813Z,19.81
2017-06-13T01:19:32.117Z,19.81
2017-06-13T01:20:32.118Z,19.87
2017-06-13T01:21:32.117Z,19.87
2017-06-13T01:22:32.116Z,19.84
2017-06-13T01:23:32.117Z,19.89
2017-06-13T01:24:32.109Z,19.85
2017-06-13T01:25:32.108Z,19.92
2017-06-13T01:26:31.803Z,19.9
2017-06-13T01:27:31.800Z,19.9
2017-06-13T01:28:32.108Z,19.93
2017-06-13T01:29:32.103Z,19.93
2017-06-13T01:30:32.303Z,19.94
2017-06-13T01:31:32.103Z,20
2017-06-13T01:32:32.101Z,19.93
2017-06-13T01:33:32.100Z,19.93
2017-06-13T01:34:31.790Z,19.92
2017-06-13T01:35:32.122Z,19.93
2017-06-13T01:36:32.097Z,19.92
2017-06-13T01:37:32.092Z,19.93
2017-06-13T01:38:32.088Z,19.89
2017-06-13T01:39:31.784Z,19.85
2017-06-13T01:40:32.088Z,19.78
2017-06-13T01:41:32.089Z,19.87
2017-06-13T01:42:31.779Z,19.89
2017-06-13T01:43:32.083Z,19.94
2017-06-13T01:44:31.775Z,19.81
2017-06-13T01:45:32.079Z,19.81
2017-06-13T01:46:31.465Z,19.75
2017-06-13T01:47:31.774Z,19.82
2017-06-13T01:48:32.075Z,19.78
2017-06-13T01:49:31.771Z,19.85
2017-06-13T01:50:31.765Z,19.72
2017-06-13T01:51:31.762Z,19.71
2017-06-13T01:52:32.072Z,19.71
2017-06-13T01:53:32.068Z,19.74
2017-06-13T01:54:32.064Z,19.72
2017-06-13T01:55:32.065Z,19.7
2017-06-13T01:56:32.061Z,19.7
2017-06-13T01:57:32.060Z,19.7
2017-06-13T01:58:31.759Z,19.67
2017-06-13T01:59:32.063Z,19.77
2017-06-13T02:00:32.060Z,19.66
2017-06-13T02:01:32.068Z,19.67
2017-06-13T02:02:31.745Z,19.63
2017-06-13T02:03:32.057Z,19.56
2017-06-13T02:04:32.048Z,19.6
2017-06-13T02:05:32.048Z,19.57
2017-06-13T02:06:32.044Z,19.66
2017-06-13T02:07:32.045Z,19.57
2017-06-13T02:08:32.042Z,19.59
2017-06-13T02:09:32.043Z,19.48
2017-06-13T02:10:32.036Z,19.49
2017-06-13T02:11:31.730Z,19.41
2017-06-13T02:12:32.035Z,19.34
2017-06-13T02:13:31.727Z,19.38
2017-06-13T02:14:31.729Z,19.24
2017-06-13T02:15:31.725Z,19.27
2017-06-13T02:16:32.031Z,19.37
2017-06-13T02:17:31.417Z,19.3
2017-06-13T02:18:32.026Z,19.24
2017-06-13T02:19:32.025Z,19.24
2017-06-13T02:20:31.717Z,19.26
2017-06-13T02:21:32.025Z,19.2
2017-06-13T02:22:32.020Z,19.24
2017-06-13T02:23:31.715Z,19.3
2017-06-13T02:24:31.711Z,19.26
2017-06-13T02:25:32.018Z,19.17
2017-06-13T02:26:32.017Z,19.22
2017-06-13T02:27:31.713Z,19.16
2017-06-13T02:28:32.010Z,19.16
2017-06-13T02:29:31.700Z,19.17
2017-06-13T02:30:31.710Z,19.16
2017-06-13T02:31:31.700Z,19.22
2017-06-13T02:32:32.006Z,19.22
2017-06-13T02:33:32.003Z,19.2
2017-06-13T02:34:31.695Z,19.17
2017-06-13T02:35:32.013Z,19.15
2017-06-13T02:36:31.998Z,19.15
2017-06-13T02:37:32.000Z,18.98
2017-06-13T02:38:31.995Z,19
2017-06-13T02:39:31.994Z,19.01
2017-06-13T02:40:31.991Z,18.98
2017-06-13T02:41:31.994Z,18.94
2017-06-13T02:42:31.986Z,18.89
2017-06-13T02:43:31.680Z,18.92
2017-06-13T02:44:31.983Z,18.91
2017-06-13T02:45:31.986Z,18.85
2017-06-13T02:46:31.992Z,18.96
2017-06-13T02:47:31.975Z,18.85
2017-06-13T02:48:31.674Z,18.81
2017-06-13T02:49:31.673Z,18.82
2017-06-13T02:50:31.978Z,18.68
2017-06-13T02:51:31.670Z,18.88
2017-06-13T02:52:31.970Z,18.73
2017-06-13T02:53:31.969Z,18.76
2017-06-13T02:54:31.965Z,18.7
2017-06-13T02:55:31.967Z,18.68
2017-06-13T02:56:31.963Z,18.64
2017-06-13T02:57:31.968Z,18.63
2017-06-13T02:58:31.652Z,18.67
2017-06-13T02:59:31.958Z,18.68
2017-06-13T03:00:31.994Z,18.66
2017-06-13T03:01:31.648Z,18.57
2017-06-13T03:02:31.955Z,18.63
2017-06-13T03:03:31.341Z,18.67
2017-06-13T03:04:31.951Z,18.67
2017-06-13T03:05:31.645Z,18.68
2017-06-13T03:06:31.643Z,18.6
2017-06-13T03:07:31.947Z,18.63
2017-06-13T03:08:31.944Z,18.66
2017-06-13T03:09:31.945Z,18.66
2017-06-13T03:10:31.644Z,18.66
2017-06-13T03:11:31.938Z,18.63
2017-06-13T03:12:31.632Z,18.48
2017-06-13T03:13:31.628Z,18.55
2017-06-13T03:14:31.938Z,18.53
2017-06-13T03:15:31.934Z,18.49
2017-06-13T03:16:31.628Z,18.48
2017-06-13T03:17:31.931Z,18.45
2017-06-13T03:18:31.623Z,18.37
2017-06-13T03:19:31.626Z,18.43
2017-06-13T03:20:31.616Z,18.41
2017-06-13T03:21:31.926Z,18.39
2017-06-13T03:22:31.927Z,18.46
2017-06-13T03:23:31.918Z,18.43
2017-06-13T03:24:31.919Z,18.43
2017-06-13T03:25:31.615Z,18.34
2017-06-13T03:26:31.919Z,18.3
2017-06-13T03:27:31.608Z,18.34
2017-06-13T03:28:31.912Z,18.43
2017-06-13T03:29:31.910Z,18.34
2017-06-13T03:30:31.908Z,18.33
2017-06-13T03:31:31.908Z,18.3
2017-06-13T03:32:31.907Z,18.34
2017-06-13T03:33:31.903Z,18.3
2017-06-13T03:34:31.900Z,18.33
2017-06-13T03:35:31.905Z,18.33
2017-06-13T03:36:31.897Z,18.33
2017-06-13T03:37:31.899Z,18.27
2017-06-13T03:38:31.893Z,18.24
2017-06-13T03:39:31.892Z,18.26
2017-06-13T03:40:31.892Z,18.26
2017-06-13T03:41:31.889Z,18.19
2017-06-13T03:42:31.583Z,18.24
2017-06-13T03:43:31.887Z,18.18
2017-06-13T03:44:31.578Z,18.18
2017-06-13T03:45:31.575Z,18.18
2017-06-13T03:46:31.597Z,18.23
2017-06-13T03:47:31.585Z,18.3
2017-06-13T03:48:31.571Z,18.33
2017-06-13T03:49:31.876Z,18.33
2017-06-13T03:50:31.569Z,18.43
2017-06-13T03:51:31.873Z,18.41
2017-06-13T03:52:31.566Z,18.43
2017-06-13T03:53:31.871Z,18.46
2017-06-13T03:54:31.561Z,18.46
2017-06-13T03:55:31.559Z,18.41
2017-06-13T03:56:31.557Z,18.39
2017-06-13T03:57:31.863Z,18.41
2017-06-13T03:58:31.861Z,18.43
2017-06-13T03:59:31.856Z,18.48
2017-06-13T04:00:31.551Z,18.43
2017-06-13T04:01:31.245Z,18.34
2017-06-13T04:02:31.856Z,18.41
2017-06-13T04:03:31.860Z,18.45
2017-06-13T04:04:31.850Z,18.52
2017-06-13T04:05:31.544Z,18.6
2017-06-13T04:06:31.848Z,18.68
2017-06-13T04:07:31.843Z,18.67
2017-06-13T04:08:31.237Z,18.83
2017-06-13T04:09:31.539Z,18.86
2017-06-13T04:10:31.227Z,18.97
2017-06-13T04:11:31.838Z,19.07
2017-06-13T04:12:31.839Z,19.29
2017-06-13T04:13:31.527Z,19.3
2017-06-13T04:14:31.833Z,19.38
2017-06-13T04:15:31.526Z,19.37
2017-06-13T04:16:31.830Z,19.41
2017-06-13T04:17:31.521Z,19.49
2017-06-13T04:18:31.523Z,19.62
2017-06-13T04:19:31.831Z,19.71
2017-06-13T04:20:31.826Z,19.77
2017-06-13T04:21:31.828Z,19.75
2017-06-13T04:22:31.515Z,19.71
2017-06-13T04:23:31.820Z,19.71
2017-06-13T04:24:31.818Z,19.67
2017-06-13T04:25:31.818Z,19.59
2017-06-13T04:26:31.818Z,19.55
2017-06-13T04:27:31.511Z,19.52
2017-06-13T04:28:31.815Z,19.49
2017-06-13T04:29:31.815Z,19.47
2017-06-13T04:30:31.809Z,19.47
2017-06-13T04:31:31.505Z,19.44
2017-06-13T04:32:31.812Z,19.39
2017-06-13T04:33:31.806Z,19.45
2017-06-13T04:34:31.805Z,19.48
2017-06-13T04:35:31.494Z,19.53
2017-06-13T04:36:31.796Z,19.67
2017-06-13T04:37:31.189Z,19.92
2017-06-13T04:38:31.793Z,20.1
2017-06-13T04:39:31.488Z,20.18
2017-06-13T04:40:31.795Z,20.11
2017-06-13T04:41:31.794Z,20.04
2017-06-13T04:42:31.794Z,19.93
2017-06-13T04:43:31.788Z,20
2017-06-13T04:44:31.482Z,19.9
2017-06-13T04:45:31.788Z,19.92
2017-06-13T04:46:31.484Z,19.82
2017-06-13T04:47:31.479Z,19.79
2017-06-13T04:48:31.778Z,19.7
2017-06-13T04:49:31.476Z,19.67
2017-06-13T04:50:31.778Z,19.59
2017-06-13T04:51:31.173Z,19.63
2017-06-13T04:52:31.776Z,19.74
2017-06-13T04:53:31.786Z,19.82
2017-06-13T04:54:31.468Z,19.75
2017-06-13T04:55:31.467Z,19.89
2017-06-13T04:56:31.773Z,19.94
2017-06-13T04:57:31.768Z,19.96
2017-06-13T04:58:31.770Z,19.93
2017-06-13T04:59:31.767Z,19.92
2017-06-13T05:00:31.461Z,19.92
2017-06-13T05:01:31.764Z,19.96
2017-06-13T05:02:31.457Z,19.94
2017-06-13T05:03:31.763Z,19.92
2017-06-13T05:04:31.454Z,19.9
2017-06-13T05:05:31.758Z,19.99
2017-06-13T05:06:31.758Z,19.96
2017-06-13T05:07:31.788Z,19.97
2017-06-13T05:08:31.754Z,19.93
2017-06-13T05:09:31.753Z,19.97
2017-06-13T05:10:31.750Z,19.94
2017-06-13T05:11:31.443Z,19.93
2017-06-13T05:12:31.442Z,20.07
2017-06-13T05:13:31.439Z,19.99
2017-06-13T05:14:31.745Z,19.96
2017-06-13T05:15:31.743Z,19.97
2017-06-13T05:16:31.442Z,20.03
2017-06-13T05:17:31.748Z,19.96
2017-06-13T05:18:31.431Z,20.07
2017-06-13T05:19:31.740Z,20.11
2017-06-13T05:20:31.735Z,20.18
2017-06-13T05:21:31.428Z,20.07
2017-06-13T05:22:31.736Z,20.1
2017-06-13T05:23:31.429Z,20.18
2017-06-13T05:24:31.728Z,20.19
2017-06-13T05:25:31.728Z,20.36
2017-06-13T05:26:31.729Z,20.53
2017-06-13T05:27:31.421Z,20.67
2017-06-13T05:28:31.419Z,20.71
2017-06-13T05:29:31.721Z,20.83
2017-06-13T05:30:31.723Z,20.88
2017-06-13T05:31:31.108Z,20.88
2017-06-13T05:32:31.726Z,20.89
2017-06-13T05:33:31.720Z,20.95
2017-06-13T05:34:31.410Z,21.07
2017-06-13T05:35:31.406Z,21.15
2017-06-13T05:36:31.715Z,21.26
2017-06-13T05:37:31.407Z,21.35
2017-06-13T05:38:31.710Z,21.47
2017-06-13T05:39:31.403Z,21.51
2017-06-13T05:40:31.709Z,21.51
2017-06-13T05:41:31.401Z,21.68
2017-06-13T05:42:31.093Z,21.77
2017-06-13T05:43:31.704Z,21.74
2017-06-13T05:44:31.707Z,21.7
2017-06-13T05:45:31.397Z,21.74
2017-06-13T05:46:31.403Z,21.69
2017-06-13T05:47:31.391Z,21.72
2017-06-13T05:48:31.391Z,21.63
2017-06-13T05:49:31.392Z,21.53
2017-06-13T05:50:31.396Z,21.45
2017-06-13T05:51:31.388Z,21.38
2017-06-13T05:52:31.695Z,21.3
2017-06-13T05:53:31.701Z,21.33
2017-06-13T05:54:31.387Z,21.3
2017-06-13T05:55:31.383Z,21.37
2017-06-13T05:56:31.691Z,21.43
2017-06-13T05:57:31.687Z,21.53
2017-06-13T05:58:31.687Z,21.53
2017-06-13T05:59:31.379Z,21.58
2017-06-13T06:00:31.683Z,21.68
2017-06-13T06:01:31.683Z,21.75
2017-06-13T06:02:31.374Z,21.89
2017-06-13T06:03:31.683Z,22.03
2017-06-13T06:04:31.675Z,22.07
2017-06-13T06:05:31.684Z,22.22
2017-06-13T06:06:31.680Z,22.21
2017-06-13T06:07:31.675Z,22.22
2017-06-13T06:08:31.678Z,22.34
2017-06-13T06:09:31.673Z,22.89
2017-06-13T06:10:31.674Z,23.45
2017-06-13T06:11:31.366Z,24.01
2017-06-13T06:12:31.670Z,24.96
2017-06-13T06:13:31.672Z,25.66
2017-06-13T06:14:31.363Z,26.27
2017-06-13T06:15:31.672Z,26.89
2017-06-13T06:16:31.673Z,27.44
2017-06-13T06:17:31.670Z,27.86
2017-06-13T06:18:31.369Z,27.66
2017-06-13T06:19:31.670Z,27.16
2017-06-13T06:20:31.673Z,26.78
2017-06-13T06:21:31.675Z,26.55
2017-06-13T06:22:31.370Z,26.81
2017-06-13T06:23:31.676Z,26.88
2017-06-13T06:24:31.375Z,26.67
2017-06-13T06:25:31.375Z,26.59
2017-06-13T06:26:31.373Z,26.37
2017-06-13T06:27:31.681Z,26.16
2017-06-13T06:28:31.680Z,25.88
2017-06-13T06:29:31.685Z,25.7
2017-06-13T06:30:31.686Z,25.36
2017-06-13T06:31:31.684Z,25.16
2017-06-13T06:32:31.687Z,24.84
2017-06-13T06:33:31.685Z,24.63
2017-06-13T06:34:31.685Z,24.5
2017-06-13T06:35:31.692Z,24.58
2017-06-13T06:36:31.383Z,24.43
2017-06-13T06:37:31.379Z,24.25
2017-06-13T06:38:31.690Z,24.1
2017-06-13T06:39:31.691Z,24.01
2017-06-13T06:40:31.691Z,23.99
2017-06-13T06:41:31.688Z,23.92
2017-06-13T06:42:31.383Z,23.99
2017-06-13T06:43:31.386Z,24.01
2017-06-13T06:44:31.690Z,24.1
2017-06-13T06:45:31.381Z,24.28
2017-06-13T06:46:31.689Z,24.19
2017-06-13T06:47:31.692Z,24.26
2017-06-13T06:48:31.386Z,24.56
2017-06-13T06:49:31.695Z,24.88
2017-06-13T06:50:31.690Z,25.16
2017-06-13T06:51:31.698Z,25.31
2017-06-13T06:52:31.693Z,25.34
2017-06-13T06:53:31.385Z,25.26
2017-06-13T06:54:31.693Z,25.22
2017-06-13T06:55:31.693Z,25.33
2017-06-13T06:56:31.695Z,25.63
2017-06-13T06:57:31.694Z,26.19
2017-06-13T06:58:31.695Z,26.59
2017-06-13T06:59:31.694Z,26.36
2017-06-13T07:00:31.693Z,26.22
2017-06-13T07:01:31.696Z,25.93
2017-06-13T07:02:31.694Z,25.67
2017-06-13T07:03:31.698Z,25.59
2017-06-13T07:04:31.702Z,25.71
2017-06-13T07:05:31.699Z,25.68
2017-06-13T07:06:31.703Z,25.63
2017-06-13T07:07:31.698Z,25.54
2017-06-13T07:08:31.396Z,25.44
2017-06-13T07:09:31.396Z,25.31
2017-06-13T07:10:31.704Z,25.19
2017-06-13T07:11:31.700Z,24.97
2017-06-13T07:12:31.700Z,24.81
2017-06-13T07:13:31.701Z,24.84
2017-06-13T07:14:31.701Z,24.92
2017-06-13T07:15:31.702Z,25.09
2017-06-13T07:16:31.705Z,25.46
2017-06-13T07:17:31.704Z,25.52
2017-06-13T07:18:31.707Z,25.58
2017-06-13T07:19:31.711Z,25.48
2017-06-13T07:20:31.098Z,25.4
2017-06-13T07:21:31.709Z,25.41
2017-06-13T07:22:31.704Z,25.49
2017-06-13T07:23:31.404Z,25.85
2017-06-13T07:24:31.706Z,26.08
2017-06-13T07:25:31.710Z,26.24
2017-06-13T07:26:31.712Z,26.45
2017-06-13T07:27:31.715Z,26.52
2017-06-13T07:28:31.711Z,26.85
2017-06-13T07:29:31.711Z,27.52
2017-06-13T07:30:31.717Z,28.22
2017-06-13T07:31:31.406Z,29.07
2017-06-13T07:32:31.102Z,29.61
2017-06-13T07:33:31.717Z,29.9
2017-06-13T07:34:31.713Z,30.21
2017-06-13T07:35:31.718Z,30.32
2017-06-13T07:36:31.716Z,30.32
2017-06-13T07:37:31.416Z,30.55
2017-06-13T07:38:31.716Z,30.81
2017-06-13T07:39:31.719Z,30.95
2017-06-13T07:40:31.718Z,31.33
2017-06-13T07:41:31.723Z,31.63
2017-06-13T07:42:31.723Z,32.02
2017-06-13T07:43:31.412Z,32.3
2017-06-13T07:44:31.722Z,32.54
2017-06-13T07:45:31.419Z,32.31
2017-06-13T07:46:31.722Z,31.67
2017-06-13T07:47:31.721Z,31.11
2017-06-13T07:48:31.725Z,30.46
2017-06-13T07:49:31.725Z,29.86
2017-06-13T07:50:31.421Z,29.28
2017-06-13T07:51:31.423Z,28.71
2017-06-13T07:52:31.728Z,28.35
2017-06-13T07:53:31.727Z,28.04
2017-06-13T07:54:31.432Z,27.82
2017-06-13T07:55:31.732Z,27.58
2017-06-13T07:56:31.731Z,27.53
2017-06-13T07:57:31.733Z,27.45
2017-06-13T07:58:31.731Z,27.34
2017-06-13T07:59:31.734Z,27.5
2017-06-13T08:00:31.732Z,27.66
2017-06-13T08:01:31.427Z,27.83
2017-06-13T08:02:31.428Z,27.86
2017-06-13T08:03:31.736Z,27.93
2017-06-13T08:04:31.735Z,28.1
2017-06-13T08:05:31.742Z,28.33
2017-06-13T08:06:31.737Z,28.35
2017-06-13T08:07:31.435Z,28.49
2017-06-13T08:08:31.434Z,28.59
2017-06-13T08:09:31.745Z,28.65
2017-06-13T08:10:31.436Z,28.64
2017-06-13T08:11:31.435Z,28.68
2017-06-13T08:12:31.743Z,28.74
2017-06-13T08:13:31.745Z,28.71
2017-06-13T08:14:31.438Z,28.96
2017-06-13T08:15:31.437Z,29.1
2017-06-13T08:16:31.742Z,29.15
2017-06-13T08:17:31.745Z,29.13
2017-06-13T08:18:31.439Z,29.27
2017-06-13T08:19:31.747Z,29.18
2017-06-13T08:20:31.746Z,29.21
2017-06-13T08:21:31.744Z,29.12
2017-06-13T08:22:31.749Z,29.05
2017-06-13T08:23:31.758Z,29.02
2017-06-13T08:24:31.750Z,29.02
2017-06-13T08:25:31.746Z,28.93
2017-06-13T08:26:31.745Z,29.02
2017-06-13T08:27:31.445Z,29.1
2017-06-13T08:28:31.749Z,29.13
2017-06-13T08:29:31.754Z,29.2
2017-06-13T08:30:31.756Z,29.16
2017-06-13T08:31:31.755Z,29.02
2017-06-13T08:32:31.754Z,28.86
2017-06-13T08:33:31.451Z,28.78
2017-06-13T08:34:31.450Z,29
2017-06-13T08:35:31.754Z,29.22
2017-06-13T08:36:31.780Z,29.24
2017-06-13T08:37:31.755Z,29.59
2017-06-13T08:38:31.454Z,30.2
2017-06-13T08:39:31.756Z,30.8
2017-06-13T08:40:31.755Z,31.47
2017-06-13T08:41:31.453Z,32.12
2017-06-13T08:42:31.756Z,32.78
2017-06-13T08:43:31.755Z,33.16
2017-06-13T08:44:31.454Z,33.66
2017-06-13T08:45:31.451Z,33.97
2017-06-13T08:46:31.457Z,34.33
2017-06-13T08:47:31.147Z,34.35
2017-06-13T08:48:31.756Z,34.44
2017-06-13T08:49:31.452Z,34.28
2017-06-13T08:50:31.758Z,34.07
2017-06-13T08:51:31.758Z,34.02
2017-06-13T08:52:31.757Z,33.6
2017-06-13T08:53:31.456Z,32.97
2017-06-13T08:54:31.760Z,32.12
2017-06-13T08:55:31.763Z,31.39
2017-06-13T08:56:31.452Z,30.7
2017-06-13T08:57:31.761Z,30.03
2017-06-13T08:58:31.764Z,29.59
2017-06-13T08:59:31.763Z,29.24
2017-06-13T09:00:31.760Z,28.97
2017-06-13T09:01:31.760Z,28.75
2017-06-13T09:02:31.454Z,28.45
2017-06-13T09:03:31.759Z,28.34
2017-06-13T09:04:31.758Z,28.27
2017-06-13T09:05:31.456Z,28.1
2017-06-13T09:06:31.457Z,27.97
2017-06-13T09:07:31.761Z,27.79
2017-06-13T09:08:31.762Z,27.82
2017-06-13T09:09:31.759Z,27.63
2017-06-13T09:10:31.452Z,27.58
2017-06-13T09:11:31.759Z,27.38
2017-06-13T09:12:31.450Z,27.29
2017-06-13T09:13:31.758Z,27.18
2017-06-13T09:14:31.759Z,27.16
2017-06-13T09:15:31.453Z,27.05
2017-06-13T09:16:31.760Z,26.93
2017-06-13T09:17:31.451Z,26.92
2017-06-13T09:18:31.757Z,26.86
2017-06-13T09:19:31.451Z,26.73
2017-06-13T09:20:31.759Z,26.71
2017-06-13T09:21:31.451Z,26.7
2017-06-13T09:22:31.753Z,26.6
2017-06-13T09:23:31.758Z,26.64
2017-06-13T09:24:31.757Z,26.6
2017-06-13T09:25:31.752Z,26.55
2017-06-13T09:26:31.447Z,26.6
2017-06-13T09:27:31.754Z,26.66
2017-06-13T09:28:31.754Z,26.64
2017-06-13T09:29:31.753Z,26.67
2017-06-13T09:30:31.445Z,26.73
2017-06-13T09:31:31.457Z,26.66
2017-06-13T09:32:31.447Z,26.6
2017-06-13T09:33:31.751Z,26.61
2017-06-13T09:34:31.452Z,26.55
2017-06-13T09:35:31.449Z,26.59
2017-06-13T09:36:31.751Z,26.59
2017-06-13T09:37:31.751Z,26.55
2017-06-13T09:38:31.441Z,26.48
2017-06-13T09:39:31.750Z,26.36
2017-06-13T09:40:31.752Z,26.36
2017-06-13T09:41:31.752Z,26.39
2017-06-13T09:42:31.440Z,26.46
2017-06-13T09:43:31.747Z,26.53
2017-06-13T09:44:31.746Z,26.44
2017-06-13T09:45:31.439Z,26.52
2017-06-13T09:46:31.743Z,26.53
2017-06-13T09:47:31.436Z,26.48
2017-06-13T09:48:31.438Z,26.46
2017-06-13T09:49:31.741Z,26.34
2017-06-13T09:50:31.739Z,26.37
2017-06-13T09:51:31.438Z,26.34
2017-06-13T09:52:31.741Z,26.41
2017-06-13T09:53:31.738Z,26.48
2017-06-13T09:54:31.434Z,26.48
2017-06-13T09:55:31.738Z,26.46
2017-06-13T09:56:31.743Z,26.52
2017-06-13T09:57:31.432Z,26.52
2017-06-13T09:58:31.737Z,26.48
2017-06-13T09:59:31.433Z,26.49
2017-06-13T10:00:31.736Z,26.59
2017-06-13T10:01:31.734Z,26.52
2017-06-13T10:02:31.735Z,26.52
2017-06-13T10:03:31.735Z,26.53
2017-06-13T10:04:31.426Z,26.45
2017-06-13T10:05:31.728Z,26.53
2017-06-13T10:06:31.732Z,26.48
2017-06-13T10:07:31.732Z,26.56
2017-06-13T10:08:31.730Z,26.55
2017-06-13T10:09:31.727Z,26.6
2017-06-13T10:10:31.731Z,26.6
2017-06-13T10:11:31.731Z,26.6
2017-06-13T10:12:31.421Z,26.56
2017-06-13T10:13:31.421Z,26.6
2017-06-13T10:14:31.420Z,26.51
2017-06-13T10:15:31.727Z,26.56
2017-06-13T10:16:31.419Z,26.53
2017-06-13T10:17:31.726Z,26.53
2017-06-13T10:18:31.416Z,26.48
2017-06-13T10:19:31.728Z,26.42
2017-06-13T10:20:31.415Z,26.39
2017-06-13T10:21:31.724Z,26.41
2017-06-13T10:22:31.724Z,26.41
2017-06-13T10:23:31.720Z,26.37
2017-06-13T10:24:31.413Z,26.52
2017-06-13T10:25:31.108Z,26.37
2017-06-13T10:26:31.409Z,26.55
2017-06-13T10:27:31.625Z,26.49
2017-06-13T10:28:31.410Z,26.53
2017-06-13T10:29:31.742Z,26.45
2017-06-13T10:30:31.717Z,26.48
2017-06-13T10:31:31.411Z,26.42
2017-06-13T10:32:31.715Z,26.48
2017-06-13T10:33:31.717Z,26.49
2017-06-13T10:34:31.407Z,26.55
2017-06-13T10:35:31.410Z,26.56
2017-06-13T10:36:31.407Z,26.56
2017-06-13T10:37:31.403Z,26.49
2017-06-13T10:38:31.404Z,26.45
2017-06-13T10:39:31.706Z,26.36
2017-06-13T10:40:31.711Z,26.39
2017-06-13T10:41:31.706Z,26.39
2017-06-13T10:42:31.095Z,26.46
2017-06-13T10:43:31.409Z,26.52
2017-06-13T10:44:31.705Z,26.44
2017-06-13T10:45:31.704Z,26.49
2017-06-13T10:46:31.398Z,26.45
2017-06-13T10:47:31.396Z,26.48
2017-06-13T10:48:31.393Z,26.34
2017-06-13T10:49:31.087Z,26.34
2017-06-13T10:50:31.395Z,26.41
2017-06-13T10:51:31.702Z,26.37
2017-06-13T10:52:31.395Z,26.23
2017-06-13T10:53:31.391Z,26.24
2017-06-13T10:54:31.695Z,26.27
2017-06-13T10:55:31.698Z,26.37
2017-06-13T10:56:31.695Z,26.36
2017-06-13T10:57:31.699Z,26.36
2017-06-13T10:58:31.385Z,26.39
2017-06-13T10:59:31.696Z,26.37
2017-06-13T11:00:31.695Z,26.42
2017-06-13T11:01:31.389Z,26.37
2017-06-13T11:02:31.693Z,26.37
2017-06-13T11:03:31.694Z,26.42
2017-06-13T11:04:31.691Z,26.41
2017-06-13T11:05:31.384Z,26.36
2017-06-13T11:06:31.686Z,26.36
2017-06-13T11:07:31.384Z,26.48
2017-06-13T11:08:31.384Z,26.44
2017-06-13T11:09:31.380Z,26.52
2017-06-13T11:10:31.684Z,26.42
2017-06-13T11:11:31.689Z,26.49
2017-06-13T11:12:31.685Z,26.44
2017-06-13T11:13:31.689Z,26.45
2017-06-13T11:14:31.683Z,26.37
2017-06-13T11:15:31.686Z,26.39
2017-06-13T11:16:31.375Z,26.51
2017-06-13T11:17:31.374Z,26.46
2017-06-13T11:18:31.703Z,26.36
2017-06-13T11:19:31.677Z,26.33
2017-06-13T11:20:31.371Z,26.42
2017-06-13T11:21:31.370Z,26.44
2017-06-13T11:22:31.678Z,26.36
2017-06-13T11:23:31.676Z,26.29
2017-06-13T11:24:31.679Z,26.36
2017-06-13T11:25:31.677Z,26.39
2017-06-13T11:26:31.674Z,26.42
2017-06-13T11:27:31.058Z,26.45
2017-06-13T11:28:31.680Z,26.41
2017-06-13T11:29:31.672Z,26.52
2017-06-13T11:30:31.363Z,26.61
2017-06-13T11:31:31.362Z,26.45
2017-06-13T11:32:31.364Z,26.29
2017-06-13T11:33:31.667Z,26.15
2017-06-13T11:34:31.362Z,26.19
2017-06-13T11:35:31.672Z,26.15
2017-06-13T11:36:31.667Z,26.16
2017-06-13T11:37:31.666Z,26.18
2017-06-13T11:38:31.358Z,26.3
2017-06-13T11:39:31.666Z,26.27
2017-06-13T11:40:31.661Z,26.27
2017-06-13T11:41:31.661Z,26.36
2017-06-13T11:42:31.659Z,26.37
2017-06-13T11:43:31.355Z,26.36
2017-06-13T11:44:31.047Z,26.36
2017-06-13T11:45:31.659Z,26.48
2017-06-13T11:46:31.657Z,26.52
2017-06-13T11:47:31.660Z,26.52
2017-06-13T11:48:31.662Z,26.55
2017-06-13T11:49:31.657Z,26.64
2017-06-13T11:50:31.351Z,26.55
2017-06-13T11:51:31.346Z,26.56
2017-06-13T11:52:31.654Z,26.56
2017-06-13T11:53:31.651Z,26.52
2017-06-13T11:54:31.039Z,26.46
2017-06-13T11:55:31.345Z,26.41
2017-06-13T11:56:31.345Z,26.42
2017-06-13T11:57:31.342Z,26.33
2017-06-13T11:58:31.341Z,26.39
2017-06-13T11:59:31.650Z,26.41
2017-06-13T12:00:31.650Z,26.31
2017-06-13T12:01:31.344Z,26.36
2017-06-13T12:02:31.645Z,26.37
2017-06-13T12:03:31.643Z,26.27
2017-06-13T12:04:31.643Z,26.15
2017-06-13T12:05:31.035Z,26.13
2017-06-13T12:06:31.642Z,26.11
2017-06-13T12:07:31.641Z,26.08
2017-06-13T12:08:31.333Z,26.13
2017-06-13T12:09:31.639Z,26.27
2017-06-13T12:10:31.334Z,26.3
2017-06-13T12:11:31.333Z,26.27
2017-06-13T12:12:31.327Z,26.26
2017-06-13T12:13:31.635Z,26.29
2017-06-13T12:14:31.637Z,26.26
2017-06-13T12:15:31.637Z,26.13
2017-06-13T12:16:31.328Z,26.15
2017-06-13T12:17:31.632Z,26.07
2017-06-13T12:18:31.634Z,26.16
2017-06-13T12:19:31.635Z,26.13
2017-06-13T12:20:31.628Z,26.16
2017-06-13T12:21:31.626Z,26.11
2017-06-13T12:22:31.323Z,26.08
2017-06-13T12:23:31.322Z,26.15
2017-06-13T12:24:31.631Z,26.07
2017-06-13T12:25:31.628Z,26.13
2017-06-13T12:26:31.321Z,26.18
2017-06-13T12:27:31.626Z,26.16
2017-06-13T12:28:31.624Z,26.16
2017-06-13T12:29:31.619Z,26.1
2017-06-13T12:30:31.621Z,26.06
2017-06-13T12:31:31.623Z,26.04
2017-06-13T12:32:31.316Z,26.13
2017-06-13T12:33:31.621Z,26.29
2017-06-13T12:34:31.625Z,26.26
2017-06-13T12:35:31.311Z,26.34
2017-06-13T12:36:31.309Z,26.48
2017-06-13T12:37:31.312Z,26.64
2017-06-13T12:38:31.308Z,26.73
2017-06-13T12:39:31.310Z,26.89
2017-06-13T12:40:31.615Z,26.89
2017-06-13T12:41:31.312Z,26.98
2017-06-13T12:42:31.614Z,27.01
2017-06-13T12:43:31.613Z,27
2017-06-13T12:44:31.611Z,27.1
2017-06-13T12:45:31.611Z,27.26
2017-06-13T12:46:31.610Z,27.4
2017-06-13T12:47:31.608Z,27.44
2017-06-13T12:48:31.611Z,27.55
2017-06-13T12:49:31.605Z,27.55
2017-06-13T12:50:31.610Z,27.6
2017-06-13T12:51:31.001Z,27.64
2017-06-13T12:52:31.610Z,27.57
2017-06-13T12:53:31.611Z,27.47
2017-06-13T12:54:31.608Z,27.41
2017-06-13T12:55:30.997Z,27.28